sensor_id;sensor_type;location;lat;lon;timestamp;pressure;altitude;pressure_sealevel;temperature;humidity
29839;BME280;18669;53.356;-1.464;2023-04-21T00:02:18;101080.34;;;9.91;100.00
29839;BME280;18669;53.356;-1.464;2023-04-21T00:05:08;101071.34;;;10.12;100.00
29839;BME280;18669;53.356;-1.464;2023-04-21T00:11:41;101048.09;;;9.73;100.00
29839;BME280;18669;53.356;-1.464;2023-04-21T00:14:26;101051.56;;;9.75;100.00
29839;BME280;18669;53.356;-1.464;2023-04-21T00:17:11;101031.53;;;9.68;100.00
29839;BME280;18669;53.356;-1.464;2023-04-21T00:19:56;101034.13;;;9.69;100.00
29839;BME280;18669;53.356;-1.464;2023-04-21T00:22:42;101033.28;;;9.67;100.00
29839;BME280;18669;53.356;-1.464;2023-04-21T00:25:27;101031.72;;;9.51;100.00
29839;BME280;18669;53.356;-1.464;2023-04-21T00:28:11;101023.72;;;9.60;100.00
29839;BME280;18669;53.356;-1.464;2023-04-21T00:30:56;101025.41;;;9.64;100.00
29839;BME280;18669;53.356;-1.464;2023-04-21T00:33:41;101019.25;;;9.70;100.00
29839;BME280;18669;53.356;-1.464;2023-04-21T00:36:26;101016.66;;;9.65;100.00
29839;BME280;18669;53.356;-1.464;2023-04-21T00:39:11;101027.09;;;9.72;100.00
29839;BME280;18669;53.356;-1.464;2023-04-21T00:41:57;101030.63;;;9.70;100.00
29839;BME280;18669;53.356;-1.464;2023-04-21T00:44:42;101021.88;;;9.70;100.00
29839;BME280;18669;53.356;-1.464;2023-04-21T00:47:26;101021.78;;;9.76;100.00
29839;BME280;18669;53.356;-1.464;2023-04-21T00:50:12;101019.22;;;9.72;100.00
29839;BME280;18669;53.356;-1.464;2023-04-21T00:52:56;101019.25;;;9.70;100.00
29839;BME280;18669;53.356;-1.464;2023-04-21T00:55:41;101018.31;;;9.76;100.00
29839;BME280;18669;53.356;-1.464;2023-04-21T00:58:26;101017.41;;;9.77;100.00
29839;BME280;18669;53.356;-1.464;2023-04-21T01:01:12;101019.91;;;9.88;100.00
29839;BME280;18669;53.356;-1.464;2023-04-21T01:03:57;101016.53;;;9.78;100.00
29839;BME280;18669;53.356;-1.464;2023-04-21T01:06:43;101025.41;;;9.67;100.00
29839;BME280;18669;53.356;-1.464;2023-04-21T01:09:28;101025.41;;;9.69;100.00
29839;BME280;18669;53.356;-1.464;2023-04-21T01:12:12;101022.00;;;9.58;100.00
29839;BME280;18669;53.356;-1.464;2023-04-21T01:14:57;101034.22;;;9.60;100.00
29839;BME280;18669;53.356;-1.464;2023-04-21T01:17:42;101027.22;;;9.61;100.00
29839;BME280;18669;53.356;-1.464;2023-04-21T01:20:28;101021.19;;;9.51;100.00
29839;BME280;18669;53.356;-1.464;2023-04-21T01:23:14;101016.00;;;9.45;100.00
29839;BME280;18669;53.356;-1.464;2023-04-21T01:26:01;101016.84;;;9.47;100.00
29839;BME280;18669;53.356;-1.464;2023-04-21T01:28:46;101015.09;;;9.47;100.00
29839;BME280;18669;53.356;-1.464;2023-04-21T01:31:32;101009.97;;;9.35;100.00
29839;BME280;18669;53.356;-1.464;2023-04-21T01:34:16;101009.13;;;9.31;100.00
29839;BME280;18669;53.356;-1.464;2023-04-21T01:37:02;100997.81;;;9.24;100.00
29839;BME280;18669;53.356;-1.464;2023-04-21T01:39:50;100997.66;;;9.38;100.00
29839;BME280;18669;53.356;-1.464;2023-04-21T01:42:40;100999.47;;;9.35;100.00
29839;BME280;18669;53.356;-1.464;2023-04-21T01:45:26;100983.88;;;9.16;100.00
29839;BME280;18669;53.356;-1.464;2023-04-21T01:48:11;101006.53;;;9.25;100.00
29839;BME280;18669;53.356;-1.464;2023-04-21T01:50:56;100999.53;;;9.24;100.00
29839;BME280;18669;53.356;-1.464;2023-04-21T01:53:40;100992.50;;;9.31;100.00
29839;BME280;18669;53.356;-1.464;2023-04-21T01:56:25;100982.94;;;9.22;100.00
29839;BME280;18669;53.356;-1.464;2023-04-21T01:59:10;100982.88;;;9.28;100.00
29839;BME280;18669;53.356;-1.464;2023-04-21T02:01:55;100976.81;;;9.23;100.00
29839;BME280;18669;53.356;-1.464;2023-04-21T02:04:40;100958.47;;;9.18;100.00
29839;BME280;18669;53.356;-1.464;2023-04-21T02:07:24;100964.59;;;9.19;100.00
29839;BME280;18669;53.356;-1.464;2023-04-21T02:10:11;100957.50;;;9.27;100.00
29839;BME280;18669;53.356;-1.464;2023-04-21T02:12:55;100947.97;;;9.18;100.00
29839;BME280;18669;53.356;-1.464;2023-04-21T02:15:40;100938.34;;;9.20;100.00
29839;BME280;18669;53.356;-1.464;2023-04-21T02:18:25;100928.72;;;9.19;100.00
29839;BME280;18669;53.356;-1.464;2023-04-21T02:21:12;100934.66;;;9.37;100.00
29839;BME280;18669;53.356;-1.464;2023-04-21T02:23:57;100919.25;;;9.04;100.00
29839;BME280;18669;53.356;-1.464;2023-04-21T02:26:42;100922.72;;;9.06;100.00
29839;BME280;18669;53.356;-1.464;2023-04-21T02:29:27;100926.19;;;9.12;100.00
29839;BME280;18669;53.356;-1.464;2023-04-21T02:32:12;100915.69;;;9.10;100.00
29839;BME280;18669;53.356;-1.464;2023-04-21T02:34:57;100915.66;;;9.13;100.00
29839;BME280;18669;53.356;-1.464;2023-04-21T02:37:42;100906.88;;;9.14;100.00
29839;BME280;18669;53.356;-1.464;2023-04-21T02:40:27;100896.31;;;9.22;100.00
29839;BME280;18669;53.356;-1.464;2023-04-21T02:43:15;100895.41;;;9.23;100.00
29839;BME280;18669;53.356;-1.464;2023-04-21T02:46:07;100882.31;;;9.20;100.00
29839;BME280;18669;53.356;-1.464;2023-04-21T02:48:52;100892.09;;;9.08;100.00
29839;BME280;18669;53.356;-1.464;2023-04-21T02:51:37;100883.31;;;9.09;100.00
29839;BME280;18669;53.356;-1.464;2023-04-21T02:54:22;100864.94;;;9.08;100.00
29839;BME280;18669;53.356;-1.464;2023-04-21T02:57:07;100884.22;;;9.07;100.00
29839;BME280;18669;53.356;-1.464;2023-04-21T02:59:52;100883.38;;;9.03;100.00
29839;BME280;18669;53.356;-1.464;2023-04-21T03:02:37;100878.16;;;9.00;100.00
29839;BME280;18669;53.356;-1.464;2023-04-21T03:05:22;100873.69;;;9.10;100.00
29839;BME280;18669;53.356;-1.464;2023-04-21T03:08:07;100876.19;;;9.22;100.00
29839;BME280;18669;53.356;-1.464;2023-04-21T03:10:51;100873.53;;;9.24;100.00
29839;BME280;18669;53.356;-1.464;2023-04-21T03:13:36;100857.97;;;9.08;100.00
29839;BME280;18669;53.356;-1.464;2023-04-21T03:16:21;100871.03;;;9.15;100.00
29839;BME280;18669;53.356;-1.464;2023-04-21T03:19:06;100866.59;;;9.18;100.00
29839;BME280;18669;53.356;-1.464;2023-04-21T03:21:51;100856.03;;;9.23;100.00
29839;BME280;18669;53.356;-1.464;2023-04-21T03:24:36;100844.72;;;9.19;100.00
29839;BME280;18669;53.356;-1.464;2023-04-21T03:27:21;100849.00;;;9.25;100.00
29839;BME280;18669;53.356;-1.464;2023-04-21T03:30:06;100851.59;;;9.30;100.00
29839;BME280;18669;53.356;-1.464;2023-04-21T03:32:51;100838.53;;;9.22;100.00
29839;BME280;18669;53.356;-1.464;2023-04-21T03:35:36;100846.28;;;9.34;100.00
29839;BME280;18669;53.356;-1.464;2023-04-21T03:38:21;100834.03;;;9.35;100.00
29839;BME280;18669;53.356;-1.464;2023-04-21T03:41:06;100834.97;;;9.31;100.00
29839;BME280;18669;53.356;-1.464;2023-04-21T03:43:51;100818.44;;;9.22;100.00
29839;BME280;18669;53.356;-1.464;2023-04-21T03:46:36;100810.59;;;9.19;100.00
29839;BME280;18669;53.356;-1.464;2023-04-21T03:49:21;100816.63;;;9.26;100.00
29839;BME280;18669;53.356;-1.464;2023-04-21T03:52:05;100799.13;;;9.25;100.00
29839;BME280;18669;53.356;-1.464;2023-04-21T03:55:27;100797.22;;;9.39;100.00
29839;BME280;18669;53.356;-1.464;2023-04-21T03:58:12;100770.28;;;9.22;100.00
29839;BME280;18669;53.356;-1.464;2023-04-21T04:00:57;100766.00;;;9.16;100.00
29839;BME280;18669;53.356;-1.464;2023-04-21T04:03:42;100763.25;;;9.24;100.00
29839;BME280;18669;53.356;-1.464;2023-04-21T04:06:27;100762.25;;;9.34;100.00
29839;BME280;18669;53.356;-1.464;2023-04-21T04:09:12;100763.13;;;9.36;100.00
29839;BME280;18669;53.356;-1.464;2023-04-21T04:11:57;100762.31;;;9.31;100.00
29839;BME280;18669;53.356;-1.464;2023-04-21T04:14:41;100737.13;;;9.18;100.00
29839;BME280;18669;53.356;-1.464;2023-04-21T04:17:26;100736.13;;;9.25;100.00
29839;BME280;18669;53.356;-1.464;2023-04-21T04:20:11;100725.59;;;9.28;100.00
29839;BME280;18669;53.356;-1.464;2023-04-21T04:22:56;100713.31;;;9.32;100.00
29839;BME280;18669;53.356;-1.464;2023-04-21T04:25:41;100708.06;;;9.30;100.00
29839;BME280;18669;53.356;-1.464;2023-04-21T04:28:26;100700.22;;;9.27;100.00
29839;BME280;18669;53.356;-1.464;2023-04-21T04:31:11;100691.59;;;9.19;100.00
29839;BME280;18669;53.356;-1.464;2023-04-21T04:33:57;100692.31;;;9.30;100.00
29839;BME280;18669;53.356;-1.464;2023-04-21T04:36:43;100688.63;;;9.44;100.00
29839;BME280;18669;53.356;-1.464;2023-04-21T04:39:28;100691.25;;;9.42;100.00
29839;BME280;18669;53.356;-1.464;2023-04-21T04:42:12;100678.16;;;9.40;100.00
29839;BME280;18669;53.356;-1.464;2023-04-21T04:44:58;100667.66;;;9.39;100.00
29839;BME280;18669;53.356;-1.464;2023-04-21T04:47:45;100658.91;;;9.40;100.00
29839;BME280;18669;53.356;-1.464;2023-04-21T04:50:29;100675.50;;;9.44;100.00
29839;BME280;18669;53.356;-1.464;2023-04-21T04:53:14;100677.34;;;9.35;100.00
29839;BME280;18669;53.356;-1.464;2023-04-21T04:56:00;100671.22;;;9.36;100.00
29839;BME280;18669;53.356;-1.464;2023-04-21T04:58:45;100677.31;;;9.37;100.00
29839;BME280;18669;53.356;-1.464;2023-04-21T05:01:30;100673.97;;;9.27;100.00
29839;BME280;18669;53.356;-1.464;2023-04-21T05:04:15;100665.28;;;9.23;100.00
29839;BME280;18669;53.356;-1.464;2023-04-21T05:07:00;100659.91;;;9.31;100.00
29839;BME280;18669;53.356;-1.464;2023-04-21T05:09:45;100659.78;;;9.39;100.00
29839;BME280;18669;53.356;-1.464;2023-04-21T05:12:30;100649.16;;;9.48;100.00
29839;BME280;18669;53.356;-1.464;2023-04-21T05:15:18;100649.00;;;9.56;100.00
29839;BME280;18669;53.356;-1.464;2023-04-21T05:18:03;100649.00;;;9.58;100.00
29839;BME280;18669;53.356;-1.464;2023-04-21T05:20:47;100650.72;;;9.60;100.00
29839;BME280;18669;53.356;-1.464;2023-04-21T05:23:32;100640.28;;;9.55;100.00
29839;BME280;18669;53.356;-1.464;2023-04-21T05:26:17;100640.25;;;9.59;100.00
29839;BME280;18669;53.356;-1.464;2023-04-21T05:29:02;100645.44;;;9.60;100.00
29839;BME280;18669;53.356;-1.464;2023-04-21T05:31:47;100650.66;;;9.63;100.00
29839;BME280;18669;53.356;-1.464;2023-04-21T05:34:32;100644.66;;;9.55;100.00
29839;BME280;18669;53.356;-1.464;2023-04-21T05:37:17;100647.19;;;9.61;100.00
29839;BME280;18669;53.356;-1.464;2023-04-21T05:40:02;100645.53;;;9.54;100.00
29839;BME280;18669;53.356;-1.464;2023-04-21T05:42:47;100646.34;;;9.59;100.00
29839;BME280;18669;53.356;-1.464;2023-04-21T05:45:31;100629.88;;;9.51;100.00
29839;BME280;18669;53.356;-1.464;2023-04-21T05:48:17;100646.47;;;9.53;100.00
29839;BME280;18669;53.356;-1.464;2023-04-21T05:51:12;100638.22;;;9.73;100.00
29839;BME280;18669;53.356;-1.464;2023-04-21T05:53:56;100625.38;;;9.58;100.00
29839;BME280;18669;53.356;-1.464;2023-04-21T05:56:41;100640.25;;;9.57;100.00
29839;BME280;18669;53.356;-1.464;2023-04-21T05:59:26;100634.34;;;9.44;100.00
29839;BME280;18669;53.356;-1.464;2023-04-21T06:02:11;100628.22;;;9.42;100.00
29839;BME280;18669;53.356;-1.464;2023-04-21T06:04:56;100622.00;;;9.51;100.00
29839;BME280;18669;53.356;-1.464;2023-04-21T06:07:41;100629.78;;;9.54;100.00
29839;BME280;18669;53.356;-1.464;2023-04-21T06:10:26;100613.28;;;9.47;100.00
29839;BME280;18669;53.356;-1.464;2023-04-21T06:13:11;100616.75;;;9.49;100.00
29839;BME280;18669;53.356;-1.464;2023-04-21T06:15:56;100608.84;;;9.51;100.00
29839;BME280;18669;53.356;-1.464;2023-04-21T06:18:41;100600.84;;;9.57;100.00
29839;BME280;18669;53.356;-1.464;2023-04-21T06:21:26;100600.91;;;9.54;100.00
29839;BME280;18669;53.356;-1.464;2023-04-21T06:24:11;100598.22;;;9.59;100.00
29839;BME280;18669;53.356;-1.464;2023-04-21T06:26:56;100592.03;;;9.63;100.00
29839;BME280;18669;53.356;-1.464;2023-04-21T06:29:42;100584.19;;;9.60;100.00
29839;BME280;18669;53.356;-1.464;2023-04-21T06:32:26;100581.72;;;9.50;100.00
29839;BME280;18669;53.356;-1.464;2023-04-21T06:35:11;100575.47;;;9.56;100.00
29839;BME280;18669;53.356;-1.464;2023-04-21T06:37:58;100573.97;;;9.41;100.00
29839;BME280;18669;53.356;-1.464;2023-04-21T06:40:43;100573.84;;;9.50;100.00
29839;BME280;18669;53.356;-1.464;2023-04-21T06:43:28;100562.38;;;9.54;100.00
29839;BME280;18669;53.356;-1.464;2023-04-21T06:46:13;100551.00;;;9.55;100.00
29839;BME280;18669;53.356;-1.464;2023-04-21T06:48:58;100550.00;;;9.63;100.00
29839;BME280;18669;53.356;-1.464;2023-04-21T06:51:43;100555.25;;;9.61;100.00
29839;BME280;18669;53.356;-1.464;2023-04-21T06:54:28;100551.84;;;9.58;100.00
29839;BME280;18669;53.356;-1.464;2023-04-21T06:57:13;100535.19;;;9.57;100.00
29839;BME280;18669;53.356;-1.464;2023-04-21T06:59:58;100550.84;;;9.65;100.00
29839;BME280;18669;53.356;-1.464;2023-04-21T07:02:43;100533.25;;;9.68;100.00
29839;BME280;18669;53.356;-1.464;2023-04-21T07:05:28;100541.34;;;9.56;100.00
29839;BME280;18669;53.356;-1.464;2023-04-21T07:08:14;100542.91;;;9.66;100.00
29839;BME280;18669;53.356;-1.464;2023-04-21T07:10:58;100547.38;;;9.61;100.00
29839;BME280;18669;53.356;-1.464;2023-04-21T07:13:43;100540.50;;;9.54;100.00
29839;BME280;18669;53.356;-1.464;2023-04-21T07:16:28;100536.91;;;9.58;100.00
29839;BME280;18669;53.356;-1.464;2023-04-21T07:19:13;100536.13;;;9.54;100.00
29839;BME280;18669;53.356;-1.464;2023-04-21T07:21:58;100528.94;;;9.64;100.00
29839;BME280;18669;53.356;-1.464;2023-04-21T07:24:43;100529.94;;;9.57;100.00
29839;BME280;18669;53.356;-1.464;2023-04-21T07:27:28;100511.59;;;9.54;100.00
29839;BME280;18669;53.356;-1.464;2023-04-21T07:30:13;100508.81;;;9.65;100.00
29839;BME280;18669;53.356;-1.464;2023-04-21T07:32:58;100515.69;;;9.70;100.00
29839;BME280;18669;53.356;-1.464;2023-04-21T07:35:43;100509.44;;;9.78;100.00
29839;BME280;18669;53.356;-1.464;2023-04-21T07:38:28;100484.13;;;9.74;100.00
29839;BME280;18669;53.356;-1.464;2023-04-21T07:41:13;100500.53;;;9.85;100.00
29839;BME280;18669;53.356;-1.464;2023-04-21T07:43:58;100476.69;;;9.94;100.00
29839;BME280;18669;53.356;-1.464;2023-04-21T07:46:42;100494.28;;;9.91;100.00
29839;BME280;18669;53.356;-1.464;2023-04-21T07:49:27;100496.03;;;9.92;100.00
29839;BME280;18669;53.356;-1.464;2023-04-21T07:52:12;100504.69;;;9.97;100.00
29839;BME280;18669;53.356;-1.464;2023-04-21T07:54:57;100495.97;;;9.93;100.00
29839;BME280;18669;53.356;-1.464;2023-04-21T07:57:42;100516.94;;;9.96;100.00
29839;BME280;18669;53.356;-1.464;2023-04-21T08:00:27;100496.88;;;9.92;100.00
29839;BME280;18669;53.356;-1.464;2023-04-21T08:03:12;100491.56;;;9.95;100.00
29839;BME280;18669;53.356;-1.464;2023-04-21T08:05:57;100486.31;;;9.95;100.00
29839;BME280;18669;53.356;-1.464;2023-04-21T08:08:42;100499.44;;;9.95;100.00
29839;BME280;18669;53.356;-1.464;2023-04-21T08:11:27;100499.50;;;9.94;100.00
29839;BME280;18669;53.356;-1.464;2023-04-21T08:14:12;100490.72;;;9.95;100.00
29839;BME280;18669;53.356;-1.464;2023-04-21T08:16:58;100488.78;;;10.03;100.00
29839;BME280;18669;53.356;-1.464;2023-04-21T08:19:43;100478.16;;;10.08;100.00
29839;BME280;18669;53.356;-1.464;2023-04-21T08:22:28;100485.28;;;10.03;100.00
29839;BME280;18669;53.356;-1.464;2023-04-21T08:25:13;100479.19;;;10.00;100.00
29839;BME280;18669;53.356;-1.464;2023-04-21T08:27:58;100478.34;;;9.98;100.00
29839;BME280;18669;53.356;-1.464;2023-04-21T08:30:43;100487.78;;;10.09;100.00
29839;BME280;18669;53.356;-1.464;2023-04-21T08:33:28;100477.28;;;10.09;100.00
29839;BME280;18669;53.356;-1.464;2023-04-21T08:36:13;100481.53;;;10.14;100.00
29839;BME280;18669;53.356;-1.464;2023-04-21T08:38:58;100481.44;;;10.19;100.00
29839;BME280;18669;53.356;-1.464;2023-04-21T08:41:43;100478.66;;;10.27;100.00
29839;BME280;18669;53.356;-1.464;2023-04-21T08:44:28;100478.66;;;10.27;100.00
29839;BME280;18669;53.356;-1.464;2023-04-21T08:47:14;100472.59;;;10.23;100.00
29839;BME280;18669;53.356;-1.464;2023-04-21T08:49:59;100470.78;;;10.25;100.00
29839;BME280;18669;53.356;-1.464;2023-04-21T08:52:43;100482.91;;;10.33;100.00
29839;BME280;18669;53.356;-1.464;2023-04-21T08:55:30;100483.69;;;10.39;100.00
29839;BME280;18669;53.356;-1.464;2023-04-21T08:58:15;100469.81;;;10.29;100.00
29839;BME280;18669;53.356;-1.464;2023-04-21T09:01:00;100473.50;;;10.22;100.00
29839;BME280;18669;53.356;-1.464;2023-04-21T09:03:44;100487.44;;;10.24;100.00
29839;BME280;18669;53.356;-1.464;2023-04-21T09:06:39;100480.25;;;10.34;100.00
29839;BME280;18669;53.356;-1.464;2023-04-21T09:09:26;100472.28;;;10.37;100.00
29839;BME280;18669;53.356;-1.464;2023-04-21T09:12:11;100475.81;;;10.36;100.00
29839;BME280;18669;53.356;-1.464;2023-04-21T09:14:56;100464.31;;;10.42;100.00
29839;BME280;18669;53.356;-1.464;2023-04-21T09:17:44;100459.84;;;10.45;100.00
29839;BME280;18669;53.356;-1.464;2023-04-21T09:20:29;100460.13;;;10.33;100.00
29839;BME280;18669;53.356;-1.464;2023-04-21T09:23:14;100458.25;;;10.37;100.00
29839;BME280;18669;53.356;-1.464;2023-04-21T09:26:02;100457.00;;;10.56;100.00
29839;BME280;18669;53.356;-1.464;2023-04-21T09:28:48;100455.47;;;10.44;100.00
29839;BME280;18669;53.356;-1.464;2023-04-21T09:31:34;100452.75;;;10.49;100.00
29839;BME280;18669;53.356;-1.464;2023-04-21T09:34:23;100455.28;;;10.54;100.00
29839;BME280;18669;53.356;-1.464;2023-04-21T09:37:10;100460.78;;;10.43;100.00
29839;BME280;18669;53.356;-1.464;2023-04-21T09:39:55;100459.16;;;10.36;100.00
29839;BME280;18669;53.356;-1.464;2023-04-21T09:42:40;100454.22;;;10.22;100.00
29839;BME280;18669;53.356;-1.464;2023-04-21T09:45:26;100448.88;;;10.25;100.00
29839;BME280;18669;53.356;-1.464;2023-04-21T09:48:12;100463.88;;;10.21;100.00
29839;BME280;18669;53.356;-1.464;2023-04-21T09:50:58;100466.88;;;10.04;100.00
29839;BME280;18669;53.356;-1.464;2023-04-21T09:53:44;100473.75;;;10.10;100.00
29839;BME280;18669;53.356;-1.464;2023-04-21T09:56:31;100473.69;;;10.11;100.00
29839;BME280;18669;53.356;-1.464;2023-04-21T09:59:19;100478.03;;;10.14;100.00
29839;BME280;18669;53.356;-1.464;2023-04-21T10:02:08;100468.78;;;9.96;100.00
29839;BME280;18669;53.356;-1.464;2023-04-21T10:04:55;100482.66;;;10.03;100.00
29839;BME280;18669;53.356;-1.464;2023-04-21T10:07:40;100476.50;;;10.05;100.00
29839;BME280;18669;53.356;-1.464;2023-04-21T10:10:27;100480.69;;;10.14;100.00
29839;BME280;18669;53.356;-1.464;2023-04-21T10:13:13;100475.41;;;10.14;100.00
29839;BME280;18669;53.356;-1.464;2023-04-21T10:16:08;100476.28;;;10.14;100.00
29839;BME280;18669;53.356;-1.464;2023-04-21T10:18:53;100476.50;;;10.05;100.00
29839;BME280;18669;53.356;-1.464;2023-04-21T10:21:38;100484.56;;;9.94;100.00
29839;BME280;18669;53.356;-1.464;2023-04-21T10:24:23;100481.09;;;9.94;100.00
29839;BME280;18669;53.356;-1.464;2023-04-21T10:27:12;100480.13;;;9.98;100.00
29839;BME280;18669;53.356;-1.464;2023-04-21T10:30:18;100472.31;;;9.93;100.00
29839;BME280;18669;53.356;-1.464;2023-04-21T10:33:04;100475.00;;;9.92;100.00
29839;BME280;18669;53.356;-1.464;2023-04-21T10:36:00;100477.53;;;9.96;100.00
29839;BME280;18669;53.356;-1.464;2023-04-21T10:38:54;100483.53;;;10.03;100.00
29839;BME280;18669;53.356;-1.464;2023-04-21T10:41:42;100476.84;;;9.88;100.00
29839;BME280;18669;53.356;-1.464;2023-04-21T10:44:29;100475.59;;;10.06;100.00
29839;BME280;18669;53.356;-1.464;2023-04-21T10:47:26;100464.00;;;10.15;100.00
29839;BME280;18669;53.356;-1.464;2023-04-21T10:53:11;100461.38;;;10.15;100.00
29839;BME280;18669;53.356;-1.464;2023-04-21T10:55:56;100465.81;;;10.11;100.00
29839;BME280;18669;53.356;-1.464;2023-04-21T10:58:41;100464.19;;;10.06;100.00
29839;BME280;18669;53.356;-1.464;2023-04-21T11:01:26;100467.72;;;10.06;100.00
29839;BME280;18669;53.356;-1.464;2023-04-21T11:04:16;100459.59;;;10.17;100.00
29839;BME280;18669;53.356;-1.464;2023-04-21T11:07:18;100453.25;;;10.26;100.00
29839;BME280;18669;53.356;-1.464;2023-04-21T11:10:06;100449.75;;;10.25;100.00
29839;BME280;18669;53.356;-1.464;2023-04-21T11:12:56;100460.25;;;10.25;100.00
29839;BME280;18669;53.356;-1.464;2023-04-21T11:15:41;100456.25;;;10.09;100.00
29839;BME280;18669;53.356;-1.464;2023-04-21T11:18:43;100453.75;;;10.03;100.00
29839;BME280;18669;53.356;-1.464;2023-04-21T11:21:28;100453.75;;;10.03;100.00
29839;BME280;18669;53.356;-1.464;2023-04-21T11:24:14;100449.31;;;10.05;100.00
29839;BME280;18669;53.356;-1.464;2023-04-21T11:26:59;100443.88;;;10.12;100.00
29839;BME280;18669;53.356;-1.464;2023-04-21T11:29:45;100432.34;;;10.20;100.00
29839;BME280;18669;53.356;-1.464;2023-04-21T11:32:30;100434.88;;;10.24;100.00
29839;BME280;18669;53.356;-1.464;2023-04-21T11:35:15;100438.44;;;10.22;100.00
29839;BME280;18669;53.356;-1.464;2023-04-21T11:38:04;100434.97;;;10.21;100.00
29839;BME280;18669;53.356;-1.464;2023-04-21T11:40:50;100427.28;;;10.12;100.00
29839;BME280;18669;53.356;-1.464;2023-04-21T11:43:39;100418.19;;;10.25;100.00
29839;BME280;18669;53.356;-1.464;2023-04-21T11:46:30;100434.78;;;10.29;100.00
29839;BME280;18669;53.356;-1.464;2023-04-21T11:49:24;100422.31;;;10.39;100.00
29839;BME280;18669;53.356;-1.464;2023-04-21T11:52:09;100432.88;;;10.36;100.00
29839;BME280;18669;53.356;-1.464;2023-04-21T11:55:00;100424.06;;;10.37;100.00
29839;BME280;18669;53.356;-1.464;2023-04-21T11:57:49;100422.34;;;10.36;100.00
29839;BME280;18669;53.356;-1.464;2023-04-21T12:00:38;100423.38;;;10.30;100.00
29839;BME280;18669;53.356;-1.464;2023-04-21T12:03:25;100425.16;;;10.28;100.00
29839;BME280;18669;53.356;-1.464;2023-04-21T12:06:19;100426.66;;;10.41;100.00
29839;BME280;18669;53.356;-1.464;2023-04-21T12:09:05;100422.09;;;10.48;100.00
29839;BME280;18669;53.356;-1.464;2023-04-21T12:11:53;100425.91;;;10.72;100.00
29839;BME280;18669;53.356;-1.464;2023-04-21T12:14:39;100416.03;;;10.81;100.00
29839;BME280;18669;53.356;-1.464;2023-04-21T12:17:24;100421.84;;;10.95;100.00
29839;BME280;18669;53.356;-1.464;2023-04-21T12:20:11;100420.88;;;10.98;100.00
29839;BME280;18669;53.356;-1.464;2023-04-21T12:22:56;100412.75;;;10.72;100.00
29839;BME280;18669;53.356;-1.464;2023-04-21T12:25:41;100421.06;;;10.55;100.00
29839;BME280;18669;53.356;-1.464;2023-04-21T12:28:26;100421.00;;;10.57;100.00
29839;BME280;18669;53.356;-1.464;2023-04-21T12:31:11;100423.84;;;10.49;100.00
29839;BME280;18669;53.356;-1.464;2023-04-21T12:33:56;100427.06;;;10.60;100.00
29839;BME280;18669;53.356;-1.464;2023-04-21T12:36:42;100423.38;;;10.68;100.00
29839;BME280;18669;53.356;-1.464;2023-04-21T12:39:29;100422.47;;;10.70;100.00
29839;BME280;18669;53.356;-1.464;2023-04-21T12:42:14;100424.81;;;10.81;100.00
29839;BME280;18669;53.356;-1.464;2023-04-21T12:45:03;100428.16;;;10.88;100.00
29839;BME280;18669;53.356;-1.464;2023-04-21T12:47:48;100427.16;;;10.94;100.00
29839;BME280;18669;53.356;-1.464;2023-04-21T12:50:33;100417.25;;;11.02;100.00
29839;BME280;18669;53.356;-1.464;2023-04-21T12:53:18;100425.88;;;11.09;100.00
29839;BME280;18669;53.356;-1.464;2023-04-21T12:56:04;100417.84;;;11.13;100.00
29839;BME280;18669;53.356;-1.464;2023-04-21T12:58:49;100422.44;;;11.07;100.00
29839;BME280;18669;53.356;-1.464;2023-04-21T13:01:33;100426.03;;;11.02;100.00
29839;BME280;18669;53.356;-1.464;2023-04-21T13:04:20;100421.31;;;11.15;100.00
29839;BME280;18669;53.356;-1.464;2023-04-21T13:07:05;100418.44;;;11.25;100.00
29839;BME280;18669;53.356;-1.464;2023-04-21T13:09:50;100420.19;;;11.24;100.00
29839;BME280;18669;53.356;-1.464;2023-04-21T13:12:35;100421.91;;;11.27;100.00
29839;BME280;18669;53.356;-1.464;2023-04-21T13:15:20;100416.63;;;11.27;100.00
29839;BME280;18669;53.356;-1.464;2023-04-21T13:18:06;100411.44;;;11.57;100.00
29839;BME280;18669;53.356;-1.464;2023-04-21T13:20:51;100410.16;;;11.70;100.00
29839;BME280;18669;53.356;-1.464;2023-04-21T13:23:36;100407.66;;;11.66;100.00
29839;BME280;18669;53.356;-1.464;2023-04-21T13:26:21;100404.75;;;11.75;100.00
29839;BME280;18669;53.356;-1.464;2023-04-21T13:29:05;100396.28;;;11.65;100.00
29839;BME280;18669;53.356;-1.464;2023-04-21T13:31:50;100404.06;;;11.68;100.00
29839;BME280;18669;53.356;-1.464;2023-04-21T13:34:35;100401.94;;;11.81;100.00
29839;BME280;18669;53.356;-1.464;2023-04-21T13:37:20;100397.19;;;11.94;100.00
29839;BME280;18669;53.356;-1.464;2023-04-21T13:40:07;100398.69;;;12.03;100.00
29839;BME280;18669;53.356;-1.464;2023-04-21T13:42:52;100390.88;;;12.00;100.00
29839;BME280;18669;53.356;-1.464;2023-04-21T13:45:37;100395.28;;;11.98;100.00
29839;BME280;18669;53.356;-1.464;2023-04-21T13:48:22;100392.09;;;11.88;100.00
29839;BME280;18669;53.356;-1.464;2023-04-21T13:51:07;100373.13;;;11.75;100.00
29839;BME280;18669;53.356;-1.464;2023-04-21T13:53:53;100373.72;;;11.85;100.00
29839;BME280;18669;53.356;-1.464;2023-04-21T13:56:38;100368.81;;;12.02;100.00
29839;BME280;18669;53.356;-1.464;2023-04-21T13:59:23;100363.66;;;11.98;100.00
29839;BME280;18669;53.356;-1.464;2023-04-21T14:02:08;100359.81;;;12.09;100.00
29839;BME280;18669;53.356;-1.464;2023-04-21T14:04:53;100362.47;;;12.36;100.00
29839;BME280;18669;53.356;-1.464;2023-04-21T14:07:38;100357.13;;;12.66;100.00
29839;BME280;18669;53.356;-1.464;2023-04-21T14:10:23;100362.25;;;12.96;100.00
29839;BME280;18669;53.356;-1.464;2023-04-21T14:13:08;100355.28;;;12.94;100.00
29839;BME280;18669;53.356;-1.464;2023-04-21T14:15:54;100360.22;;;12.78;100.00
29839;BME280;18669;53.356;-1.464;2023-04-21T14:18:39;100362.22;;;12.71;100.00